sensor_id;sensor_type;location;lat;lon;timestamp;temperature;humidity
40848;DHT22;26570;50.962;5.340;2023-06-26T00:01:43;22.20;99.90
40848;DHT22;26570;50.962;5.340;2023-06-26T00:05:30;22.00;99.90
40848;DHT22;26570;50.962;5.340;2023-06-26T00:09:27;22.10;99.90
40848;DHT22;26570;50.962;5.340;2023-06-26T00:12:27;22.10;99.90
40848;DHT22;26570;50.962;5.340;2023-06-26T00:15:46;22.00;99.90
40848;DHT22;26570;50.962;5.340;2023-06-26T00:19:17;22.00;99.90
40848;DHT22;26570;50.962;5.340;2023-06-26T00:22:41;22.30;99.90
40848;DHT22;26570;50.962;5.340;2023-06-26T00:26:17;22.20;99.90
40848;DHT22;26570;50.962;5.340;2023-06-26T00:32:44;22.30;99.90
40848;DHT22;26570;50.962;5.340;2023-06-26T00:39:59;22.60;99.90
40848;DHT22;26570;50.962;5.340;2023-06-26T00:42:59;22.60;99.90
40848;DHT22;26570;50.962;5.340;2023-06-26T00:46:30;22.80;99.90
40848;DHT22;26570;50.962;5.340;2023-06-26T00:49:49;22.80;99.90
40848;DHT22;26570;50.962;5.340;2023-06-26T00:52:50;22.70;99.90
40848;DHT22;26570;50.962;5.340;2023-06-26T00:56:22;22.60;99.90
40848;DHT22;26570;50.962;5.340;2023-06-26T01:24:33;22.50;99.90
40848;DHT22;26570;50.962;5.340;2023-06-26T01:31:14;22.50;99.90
40848;DHT22;26570;50.962;5.340;2023-06-26T01:34:20;22.60;99.90
40848;DHT22;26570;50.962;5.340;2023-06-26T01:37:49;22.40;99.90
40848;DHT22;26570;50.962;5.340;2023-06-26T01:41:05;22.30;99.90
40848;DHT22;26570;50.962;5.340;2023-06-26T01:44:23;22.30;99.90
40848;DHT22;26570;50.962;5.340;2023-06-26T01:47:21;22.30;99.90
40848;DHT22;26570;50.962;5.340;2023-06-26T01:50:17;22.10;99.90
40848;DHT22;26570;50.962;5.340;2023-06-26T01:53:54;22.10;99.90
40848;DHT22;26570;50.962;5.340;2023-06-26T01:57:15;22.10;99.90
40848;DHT22;26570;50.962;5.340;2023-06-26T02:00:35;22.30;99.90
40848;DHT22;26570;50.962;5.340;2023-06-26T02:03:30;22.40;99.90
40848;DHT22;26570;50.962;5.340;2023-06-26T02:06:50;22.20;99.90
40848;DHT22;26570;50.962;5.340;2023-06-26T02:09:42;22.30;99.90
40848;DHT22;26570;50.962;5.340;2023-06-26T02:13:01;22.20;99.90
40848;DHT22;26570;50.962;5.340;2023-06-26T02:15:53;22.00;99.90
40848;DHT22;26570;50.962;5.340;2023-06-26T02:18:43;22.10;99.90
40848;DHT22;26570;50.962;5.340;2023-06-26T02:21:57;22.00;99.90
40848;DHT22;26570;50.962;5.340;2023-06-26T02:25:06;22.00;99.90
40848;DHT22;26570;50.962;5.340;2023-06-26T02:28:20;21.80;99.90
40848;DHT22;26570;50.962;5.340;2023-06-26T02:31:11;22.20;99.90
40848;DHT22;26570;50.962;5.340;2023-06-26T02:34:31;22.10;99.90
40848;DHT22;26570;50.962;5.340;2023-06-26T02:37:21;21.70;99.90
40848;DHT22;26570;50.962;5.340;2023-06-26T02:40:56;21.60;99.90
40848;DHT22;26570;50.962;5.340;2023-06-26T02:44:37;21.70;99.90
40848;DHT22;26570;50.962;5.340;2023-06-26T02:47:25;21.50;99.90
40848;DHT22;26570;50.962;5.340;2023-06-26T02:51:01;21.50;99.90
40848;DHT22;26570;50.962;5.340;2023-06-26T02:54:40;21.30;99.90
40848;DHT22;26570;50.962;5.340;2023-06-26T02:57:54;21.30;99.90
40848;DHT22;26570;50.962;5.340;2023-06-26T03:00:47;21.30;99.90
40848;DHT22;26570;50.962;5.340;2023-06-26T03:03:44;21.30;99.90
40848;DHT22;26570;50.962;5.340;2023-06-26T03:06:34;21.30;99.90
40848;DHT22;26570;50.962;5.340;2023-06-26T03:09:33;21.40;99.90
40848;DHT22;26570;50.962;5.340;2023-06-26T03:12:43;21.40;99.90
40848;DHT22;26570;50.962;5.340;2023-06-26T03:15:41;21.20;99.90
40848;DHT22;26570;50.962;5.340;2023-06-26T03:18:55;21.30;99.90
40848;DHT22;26570;50.962;5.340;2023-06-26T03:25:27;21.30;99.90
40848;DHT22;26570;50.962;5.340;2023-06-26T03:28:25;21.30;99.90
40848;DHT22;26570;50.962;5.340;2023-06-26T03:31:36;21.30;99.90
40848;DHT22;26570;50.962;5.340;2023-06-26T03:34:29;21.00;99.90
40848;DHT22;26570;50.962;5.340;2023-06-26T03:37:19;21.00;99.90
40848;DHT22;26570;50.962;5.340;2023-06-26T03:40:07;20.90;99.90
40848;DHT22;26570;50.962;5.340;2023-06-26T03:43:28;20.80;99.90
40848;DHT22;26570;50.962;5.340;2023-06-26T03:46:23;21.00;99.90
40848;DHT22;26570;50.962;5.340;2023-06-26T03:49:27;20.80;99.90
40848;DHT22;26570;50.962;5.340;2023-06-26T03:52:25;20.70;99.90
40848;DHT22;26570;50.962;5.340;2023-06-26T03:55:12;20.60;99.90
40848;DHT22;26570;50.962;5.340;2023-06-26T03:58:15;20.80;99.90
40848;DHT22;26570;50.962;5.340;2023-06-26T04:01:25;20.70;99.90
40848;DHT22;26570;50.962;5.340;2023-06-26T04:04:23;20.40;99.90
40848;DHT22;26570;50.962;5.340;2023-06-26T04:07:24;20.60;99.90
40848;DHT22;26570;50.962;5.340;2023-06-26T04:11:03;20.70;99.90
40848;DHT22;26570;50.962;5.340;2023-06-26T04:14:15;20.80;99.90
40848;DHT22;26570;50.962;5.340;2023-06-26T04:17:35;20.70;99.90
40848;DHT22;26570;50.962;5.340;2023-06-26T04:21:13;20.60;99.90
40848;DHT22;26570;50.962;5.340;2023-06-26T04:24:35;20.50;99.90
40848;DHT22;26570;50.962;5.340;2023-06-26T04:27:40;20.40;99.90
40848;DHT22;26570;50.962;5.340;2023-06-26T04:31:12;20.50;99.90
40848;DHT22;26570;50.962;5.340;2023-06-26T04:34:13;20.50;99.90
40848;DHT22;26570;50.962;5.340;2023-06-26T04:44:24;20.50;99.90
40848;DHT22;26570;50.962;5.340;2023-06-26T04:47:17;20.60;99.90
40848;DHT22;26570;50.962;5.340;2023-06-26T04:50:08;20.50;99.90
40848;DHT22;26570;50.962;5.340;2023-06-26T04:52:57;20.50;99.90
40848;DHT22;26570;50.962;5.340;2023-06-26T04:55:44;20.50;99.90
40848;DHT22;26570;50.962;5.340;2023-06-26T04:58:32;20.40;99.90
40848;DHT22;26570;50.962;5.340;2023-06-26T05:01:43;20.40;99.90
40848;DHT22;26570;50.962;5.340;2023-06-26T05:04:34;20.60;99.90
40848;DHT22;26570;50.962;5.340;2023-06-26T05:07:30;20.60;99.90
40848;DHT22;26570;50.962;5.340;2023-06-26T05:10:20;20.60;99.90
40848;DHT22;26570;50.962;5.340;2023-06-26T05:13:18;20.70;99.90
40848;DHT22;26570;50.962;5.340;2023-06-26T05:16:05;20.80;99.90
40848;DHT22;26570;50.962;5.340;2023-06-26T05:19:17;20.80;99.90
40848;DHT22;26570;50.962;5.340;2023-06-26T05:22:08;20.60;99.90
40848;DHT22;26570;50.962;5.340;2023-06-26T05:25:24;20.60;99.90
40848;DHT22;26570;50.962;5.340;2023-06-26T05:28:16;20.60;99.90
40848;DHT22;26570;50.962;5.340;2023-06-26T05:31:07;20.50;99.90
40848;DHT22;26570;50.962;5.340;2023-06-26T05:33:56;20.60;99.90
40848;DHT22;26570;50.962;5.340;2023-06-26T05:37:00;20.60;99.90
40848;DHT22;26570;50.962;5.340;2023-06-26T05:39:51;20.70;99.90
40848;DHT22;26570;50.962;5.340;2023-06-26T05:42:40;20.60;99.90
40848;DHT22;26570;50.962;5.340;2023-06-26T05:45:32;20.90;99.90
40848;DHT22;26570;50.962;5.340;2023-06-26T05:48:32;21.00;99.90
40848;DHT22;26570;50.962;5.340;2023-06-26T05:51:20;21.10;99.90
40848;DHT22;26570;50.962;5.340;2023-06-26T05:54:09;21.00;99.90
40848;DHT22;26570;50.962;5.340;2023-06-26T05:56:58;21.10;99.90
40848;DHT22;26570;50.962;5.340;2023-06-26T05:59:48;21.20;99.90
40848;DHT22;26570;50.962;5.340;2023-06-26T06:02:45;21.10;99.90
40848;DHT22;26570;50.962;5.340;2023-06-26T06:05:32;21.10;99.90
40848;DHT22;26570;50.962;5.340;2023-06-26T06:08:43;21.10;99.90
40848;DHT22;26570;50.962;5.340;2023-06-26T06:11:33;21.10;99.90
40848;DHT22;26570;50.962;5.340;2023-06-26T06:14:21;21.10;99.90
40848;DHT22;26570;50.962;5.340;2023-06-26T06:17:09;21.10;99.90
40848;DHT22;26570;50.962;5.340;2023-06-26T06:19:56;21.70;99.90
40848;DHT22;26570;50.962;5.340;2023-06-26T06:23:09;22.60;99.90
40848;DHT22;26570;50.962;5.340;2023-06-26T06:26:01;23.20;99.90
40848;DHT22;26570;50.962;5.340;2023-06-26T06:29:14;23.60;99.90
40848;DHT22;26570;50.962;5.340;2023-06-26T06:32:01;23.70;99.90
40848;DHT22;26570;50.962;5.340;2023-06-26T06:34:50;24.00;99.90
40848;DHT22;26570;50.962;5.340;2023-06-26T06:37:38;24.30;99.90
40848;DHT22;26570;50.962;5.340;2023-06-26T06:40:25;24.30;99.90
40848;DHT22;26570;50.962;5.340;2023-06-26T06:43:14;24.40;99.90
40848;DHT22;26570;50.962;5.340;2023-06-26T06:46:02;24.70;99.90
40848;DHT22;26570;50.962;5.340;2023-06-26T06:48:50;24.90;99.90
40848;DHT22;26570;50.962;5.340;2023-06-26T06:51:41;24.90;99.90
40848;DHT22;26570;50.962;5.340;2023-06-26T06:54:28;24.70;99.90
40848;DHT22;26570;50.962;5.340;2023-06-26T06:57:17;24.80;99.90
40848;DHT22;26570;50.962;5.340;2023-06-26T07:00:08;24.90;99.90
40848;DHT22;26570;50.962;5.340;2023-06-26T07:02:59;25.30;99.90
40848;DHT22;26570;50.962;5.340;2023-06-26T07:05:48;25.00;99.90
40848;DHT22;26570;50.962;5.340;2023-06-26T07:08:39;24.60;99.90
40848;DHT22;26570;50.962;5.340;2023-06-26T07:11:31;24.90;99.90
40848;DHT22;26570;50.962;5.340;2023-06-26T07:14:20;25.10;99.90
40848;DHT22;26570;50.962;5.340;2023-06-26T07:17:13;25.30;99.90
40848;DHT22;26570;50.962;5.340;2023-06-26T07:20:11;26.00;99.90
40848;DHT22;26570;50.962;5.340;2023-06-26T07:23:01;25.80;99.90
40848;DHT22;26570;50.962;5.340;2023-06-26T07:25:53;25.70;99.90
40848;DHT22;26570;50.962;5.340;2023-06-26T07:28:45;25.30;99.90
40848;DHT22;26570;50.962;5.340;2023-06-26T07:32:05;24.90;99.90
40848;DHT22;26570;50.962;5.340;2023-06-26T07:34:54;24.70;99.90
40848;DHT22;26570;50.962;5.340;2023-06-26T07:37:52;25.20;99.90
40848;DHT22;26570;50.962;5.340;2023-06-26T07:40:40;25.40;99.90
40848;DHT22;26570;50.962;5.340;2023-06-26T07:43:28;25.60;99.90
40848;DHT22;26570;50.962;5.340;2023-06-26T07:46:43;26.40;99.90
40848;DHT22;26570;50.962;5.340;2023-06-26T07:49:35;26.50;99.90
40848;DHT22;26570;50.962;5.340;2023-06-26T07:52:27;26.70;99.90
40848;DHT22;26570;50.962;5.340;2023-06-26T07:55:19;27.00;99.90
40848;DHT22;26570;50.962;5.340;2023-06-26T07:58:08;27.20;99.40
40848;DHT22;26570;50.962;5.340;2023-06-26T08:00:57;27.10;99.50
40848;DHT22;26570;50.962;5.340;2023-06-26T08:03:46;26.80;99.70
40848;DHT22;26570;50.962;5.340;2023-06-26T08:06:34;26.60;99.80
40848;DHT22;26570;50.962;5.340;2023-06-26T08:09:32;26.50;99.70
40848;DHT22;26570;50.962;5.340;2023-06-26T08:12:21;27.20;98.70
40848;DHT22;26570;50.962;5.340;2023-06-26T08:15:08;27.80;97.60
40848;DHT22;26570;50.962;5.340;2023-06-26T08:17:59;28.00;97.20
40848;DHT22;26570;50.962;5.340;2023-06-26T08:20:47;27.80;96.00
40848;DHT22;26570;50.962;5.340;2023-06-26T08:23:37;27.20;97.40
40848;DHT22;26570;50.962;5.340;2023-06-26T08:26:26;27.20;96.50
40848;DHT22;26570;50.962;5.340;2023-06-26T08:29:15;27.30;97.60
40848;DHT22;26570;50.962;5.340;2023-06-26T08:32:06;27.50;96.50
40848;DHT22;26570;50.962;5.340;2023-06-26T08:34:54;27.50;95.70
40848;DHT22;26570;50.962;5.340;2023-06-26T08:37:42;27.30;97.00
40848;DHT22;26570;50.962;5.340;2023-06-26T08:40:31;26.80;97.60
40848;DHT22;26570;50.962;5.340;2023-06-26T08:43:19;26.00;99.20
40848;DHT22;26570;50.962;5.340;2023-06-26T08:46:07;25.50;99.90
40848;DHT22;26570;50.962;5.340;2023-06-26T08:49:18;26.20;99.90
40848;DHT22;26570;50.962;5.340;2023-06-26T08:52:17;26.30;99.70
40848;DHT22;26570;50.962;5.340;2023-06-26T08:55:12;26.40;99.20
40848;DHT22;26570;50.962;5.340;2023-06-26T08:58:00;25.90;99.90
40848;DHT22;26570;50.962;5.340;2023-06-26T09:00:49;25.80;99.90
40848;DHT22;26570;50.962;5.340;2023-06-26T09:03:37;25.90;99.90
40848;DHT22;26570;50.962;5.340;2023-06-26T09:06:28;25.40;99.90
40848;DHT22;26570;50.962;5.340;2023-06-26T09:09:15;25.30;99.90
40848;DHT22;26570;50.962;5.340;2023-06-26T09:12:04;25.60;99.90
40848;DHT22;26570;50.962;5.340;2023-06-26T09:14:53;26.20;99.90
40848;DHT22;26570;50.962;5.340;2023-06-26T09:17:42;27.10;97.80
40848;DHT22;26570;50.962;5.340;2023-06-26T09:20:30;27.50;97.60
40848;DHT22;26570;50.962;5.340;2023-06-26T09:23:22;27.50;95.60
40848;DHT22;26570;50.962;5.340;2023-06-26T09:26:10;26.80;96.20
40848;DHT22;26570;50.962;5.340;2023-06-26T09:29:02;26.20;97.30
40848;DHT22;26570;50.962;5.340;2023-06-26T09:31:52;26.30;96.90
40848;DHT22;26570;50.962;5.340;2023-06-26T09:34:44;27.00;97.30
40848;DHT22;26570;50.962;5.340;2023-06-26T09:37:34;27.20;96.70
40848;DHT22;26570;50.962;5.340;2023-06-26T09:40:21;27.70;95.60
40848;DHT22;26570;50.962;5.340;2023-06-26T09:43:13;28.00;94.40
40848;DHT22;26570;50.962;5.340;2023-06-26T09:46:16;28.40;93.60
40848;DHT22;26570;50.962;5.340;2023-06-26T09:49:07;28.90;92.10
40848;DHT22;26570;50.962;5.340;2023-06-26T09:51:55;28.70;91.50
40848;DHT22;26570;50.962;5.340;2023-06-26T09:54:44;27.90;91.70
40848;DHT22;26570;50.962;5.340;2023-06-26T09:57:58;27.80;90.50
40848;DHT22;26570;50.962;5.340;2023-06-26T10:00:47;27.40;91.70
40848;DHT22;26570;50.962;5.340;2023-06-26T10:03:37;26.70;92.20
40848;DHT22;26570;50.962;5.340;2023-06-26T10:09:20;26.40;90.90
40848;DHT22;26570;50.962;5.340;2023-06-26T10:12:23;26.50;92.50
40848;DHT22;26570;50.962;5.340;2023-06-26T10:15:35;27.10;90.60
40848;DHT22;26570;50.962;5.340;2023-06-26T10:18:26;27.20;90.80
40848;DHT22;26570;50.962;5.340;2023-06-26T10:21:15;27.20;90.60
40848;DHT22;26570;50.962;5.340;2023-06-26T10:24:05;26.90;90.00
40848;DHT22;26570;50.962;5.340;2023-06-26T10:26:59;26.50;90.10
40848;DHT22;26570;50.962;5.340;2023-06-26T10:30:06;26.40;91.50
40848;DHT22;26570;50.962;5.340;2023-06-26T10:33:01;26.20;89.30
40848;DHT22;26570;50.962;5.340;2023-06-26T10:35:51;26.00;89.80
40848;DHT22;26570;50.962;5.340;2023-06-26T10:39:17;26.10;91.20
40848;DHT22;26570;50.962;5.340;2023-06-26T10:42:12;26.10;91.60
40848;DHT22;26570;50.962;5.340;2023-06-26T10:48:00;25.80;91.70
40848;DHT22;26570;50.962;5.340;2023-06-26T10:50:51;25.60;88.60
40848;DHT22;26570;50.962;5.340;2023-06-26T10:53:40;25.60;91.20
40848;DHT22;26570;50.962;5.340;2023-06-26T10:56:47;25.90;90.50
40848;DHT22;26570;50.962;5.340;2023-06-26T10:59:38;26.00;88.90
40848;DHT22;26570;50.962;5.340;2023-06-26T11:02:49;26.20;90.70
40848;DHT22;26570;50.962;5.340;2023-06-26T11:06:21;26.60;86.30
40848;DHT22;26570;50.962;5.340;2023-06-26T11:09:11;26.70;86.40
40848;DHT22;26570;50.962;5.340;2023-06-26T11:11:59;26.80;86.20
40848;DHT22;26570;50.962;5.340;2023-06-26T11:14:51;27.20;86.30
40848;DHT22;26570;50.962;5.340;2023-06-26T11:17:39;27.10;82.70
40848;DHT22;26570;50.962;5.340;2023-06-26T11:20:28;26.90;83.10
40848;DHT22;26570;50.962;5.340;2023-06-26T11:23:22;27.20;82.80
40848;DHT22;26570;50.962;5.340;2023-06-26T11:26:20;27.50;82.60
40848;DHT22;26570;50.962;5.340;2023-06-26T11:29:08;27.10;80.70
40848;DHT22;26570;50.962;5.340;2023-06-26T11:32:05;27.10;81.10
40848;DHT22;26570;50.962;5.340;2023-06-26T11:34:53;27.20;82.10
40848;DHT22;26570;50.962;5.340;2023-06-26T11:37:42;26.70;83.20
40848;DHT22;26570;50.962;5.340;2023-06-26T11:40:34;26.70;84.70
40848;DHT22;26570;50.962;5.340;2023-06-26T11:43:23;26.20;81.70
40848;DHT22;26570;50.962;5.340;2023-06-26T11:46:11;26.10;81.70
40848;DHT22;26570;50.962;5.340;2023-06-26T11:49:06;26.10;79.90
40848;DHT22;26570;50.962;5.340;2023-06-26T11:51:54;26.40;83.00
40848;DHT22;26570;50.962;5.340;2023-06-26T11:54:43;26.70;81.90
40848;DHT22;26570;50.962;5.340;2023-06-26T11:57:36;26.20;81.30
40848;DHT22;26570;50.962;5.340;2023-06-26T12:00:24;25.60;80.90
40848;DHT22;26570;50.962;5.340;2023-06-26T12:03:12;25.60;83.60
40848;DHT22;26570;50.962;5.340;2023-06-26T12:05:59;25.70;83.10
40848;DHT22;26570;50.962;5.340;2023-06-26T12:08:49;25.80;85.30
40848;DHT22;26570;50.962;5.340;2023-06-26T12:11:42;26.00;84.50
40848;DHT22;26570;50.962;5.340;2023-06-26T12:14:32;26.00;85.70
40848;DHT22;26570;50.962;5.340;2023-06-26T12:17:23;26.20;85.60
40848;DHT22;26570;50.962;5.340;2023-06-26T12:20:23;26.50;82.00
40848;DHT22;26570;50.962;5.340;2023-06-26T12:23:16;26.40;82.70
40848;DHT22;26570;50.962;5.340;2023-06-26T12:26:21;26.20;82.80
40848;DHT22;26570;50.962;5.340;2023-06-26T12:29:12;25.80;82.90
40848;DHT22;26570;50.962;5.340;2023-06-26T12:31:59;26.10;85.20
40848;DHT22;26570;50.962;5.340;2023-06-26T12:34:58;26.60;81.30
40848;DHT22;26570;50.962;5.340;2023-06-26T12:37:48;26.90;79.40
40848;DHT22;26570;50.962;5.340;2023-06-26T12:40:45;27.10;78.60
40848;DHT22;26570;50.962;5.340;2023-06-26T12:43:33;27.00;78.80
40848;DHT22;26570;50.962;5.340;2023-06-26T12:46:38;26.90;77.80
40848;DHT22;26570;50.962;5.340;2023-06-26T12:52:22;27.00;80.00
40848;DHT22;26570;50.962;5.340;2023-06-26T12:55:11;27.50;78.70
40848;DHT22;26570;50.962;5.340;2023-06-26T12:58:00;28.00;77.60
40848;DHT22;26570;50.962;5.340;2023-06-26T13:00:48;28.00;78.80
40848;DHT22;26570;50.962;5.340;2023-06-26T13:03:36;27.40;75.90
40848;DHT22;26570;50.962;5.340;2023-06-26T13:06:27;27.40;77.50
40848;DHT22;26570;50.962;5.340;2023-06-26T13:09:16;27.10;78.80
40848;DHT22;26570;50.962;5.340;2023-06-26T13:12:04;27.10;77.20
40848;DHT22;26570;50.962;5.340;2023-06-26T13:14:52;27.00;79.70
40848;DHT22;26570;50.962;5.340;2023-06-26T13:17:40;27.30;78.70
40848;DHT22;26570;50.962;5.340;2023-06-26T13:20:32;27.50;76.10
40848;DHT22;26570;50.962;5.340;2023-06-26T13:23:20;27.10;76.50
40848;DHT22;26570;50.962;5.340;2023-06-26T13:26:09;27.30;78.00
40848;DHT22;26570;50.962;5.340;2023-06-26T13:28:57;27.40;74.30
40848;DHT22;26570;50.962;5.340;2023-06-26T13:31:44;27.60;76.30
40848;DHT22;26570;50.962;5.340;2023-06-26T13:34:34;27.90;75.60
40848;DHT22;26570;50.962;5.340;2023-06-26T13:37:22;27.40;75.80
40848;DHT22;26570;50.962;5.340;2023-06-26T13:40:11;27.20;79.80
40848;DHT22;26570;50.962;5.340;2023-06-26T13:42:57;27.20;79.00
40848;DHT22;26570;50.962;5.340;2023-06-26T13:45:45;27.40;78.90
40848;DHT22;26570;50.962;5.340;2023-06-26T13:48:37;27.40;77.10
40848;DHT22;26570;50.962;5.340;2023-06-26T13:51:25;27.80;78.00
40848;DHT22;26570;50.962;5.340;2023-06-26T13:54:24;27.40;74.50
40848;DHT22;26570;50.962;5.340;2023-06-26T13:57:12;27.20;76.10
40848;DHT22;26570;50.962;5.340;2023-06-26T14:00:00;26.60;75.70
40848;DHT22;26570;50.962;5.340;2023-06-26T14:02:49;26.20;77.10
40848;DHT22;26570;50.962;5.340;2023-06-26T14:05:38;26.20;76.80
40848;DHT22;26570;50.962;5.340;2023-06-26T14:08:27;26.30;75.50
40848;DHT22;26570;50.962;5.340;2023-06-26T14:11:15;26.20;77.20
40848;DHT22;26570;50.962;5.340;2023-06-26T14:14:03;26.40;76.20
40848;DHT22;26570;50.962;5.340;2023-06-26T14:16:50;26.30;78.70
40848;DHT22;26570;50.962;5.340;2023-06-26T14:19:39;26.40;79.30
40848;DHT22;26570;50.962;5.340;2023-06-26T14:22:28;26.50;76.80
40848;DHT22;26570;50.962;5.340;2023-06-26T14:25:16;26.20;75.70
40848;DHT22;26570;50.962;5.340;2023-06-26T14:28:04;26.30;78.20
40848;DHT22;26570;50.962;5.340;2023-06-26T14:30:52;26.60;77.20
40848;DHT22;26570;50.962;5.340;2023-06-26T14:33:41;26.30;76.90
40848;DHT22;26570;50.962;5.340;2023-06-26T14:36:29;26.20;76.70
40848;DHT22;26570;50.962;5.340;2023-06-26T14:39:19;26.20;76.90
40848;DHT22;26570;50.962;5.340;2023-06-26T14:42:06;26.30;77.30
40848;DHT22;26570;50.962;5.340;2023-06-26T14:44:54;26.40;76.80
40848;DHT22;26570;50.962;5.340;2023-06-26T14:47:43;26.60;77.30
40848;DHT22;26570;50.962;5.340;2023-06-26T14:50:31;26.50;74.80
40848;DHT22;26570;50.962;5.340;2023-06-26T14:53:19;26.40;75.70
40848;DHT22;26570;50.962;5.340;2023-06-26T14:56:08;26.40;75.70
40848;DHT22;26570;50.962;5.340;2023-06-26T14:58:57;26.50;76.90
40848;DHT22;26570;50.962;5.340;2023-06-26T15:01:44;26.60;75.90
40848;DHT22;26570;50.962;5.340;2023-06-26T15:04:32;26.80;76.90
40848;DHT22;26570;50.962;5.340;2023-06-26T15:07:21;26.60;74.90
40848;DHT22;26570;50.962;5.340;2023-06-26T15:10:09;26.00;73.60
40848;DHT22;26570;50.962;5.340;2023-06-26T15:12:58;25.60;76.20
40848;DHT22;26570;50.962;5.340;2023-06-26T15:15:48;26.00;78.20
40848;DHT22;26570;50.962;5.340;2023-06-26T15:18:36;25.90;77.40
40848;DHT22;26570;50.962;5.340;2023-06-26T15:21:26;26.10;76.40
40848;DHT22;26570;50.962;5.340;2023-06-26T15:24:14;26.40;75.00
40848;DHT22;26570;50.962;5.340;2023-06-26T15:27:02;26.80;75.00
40848;DHT22;26570;50.962;5.340;2023-06-26T15:29:51;26.50;76.50
40848;DHT22;26570;50.962;5.340;2023-06-26T15:32:38;26.30;75.10
40848;DHT22;26570;50.962;5.340;2023-06-26T15:35:25;26.20;75.10
40848;DHT22;26570;50.962;5.340;2023-06-26T15:38:15;26.20;76.80
40848;DHT22;26570;50.962;5.340;2023-06-26T15:41:02;26.20;77.10
40848;DHT22;26570;50.962;5.340;2023-06-26T15:43:51;26.20;75.30
40848;DHT22;26570;50.962;5.340;2023-06-26T15:46:42;26.10;75.70
40848;DHT22;26570;50.962;5.340;2023-06-26T15:49:29;25.90;76.90
40848;DHT22;26570;50.962;5.340;2023-06-26T15:52:18;26.10;78.10
40848;DHT22;26570;50.962;5.340;2023-06-26T15:55:06;26.20;77.60
40848;DHT22;26570;50.962;5.340;2023-06-26T15:57:55;26.10;78.00
40848;DHT22;26570;50.962;5.340;2023-06-26T16:00:43;25.80;79.30
40848;DHT22;26570;50.962;5.340;2023-06-26T16:03:31;25.50;80.90
40848;DHT22;26570;50.962;5.340;2023-06-26T16:06:19;25.40;82.40
40848;DHT22;26570;50.962;5.340;2023-06-26T16:09:10;25.50;82.10
40848;DHT22;26570;50.962;5.340;2023-06-26T16:11:59;25.10;83.00
40848;DHT22;26570;50.962;5.340;2023-06-26T16:14:47;25.10;83.10
40848;DHT22;26570;50.962;5.340;2023-06-26T16:17:37;24.90;83.60
40848;DHT22;26570;50.962;5.340;2023-06-26T16:20:27;24.60;84.30
40848;DHT22;26570;50.962;5.340;2023-06-26T16:23:15;24.40;84.90
40848;DHT22;26570;50.962;5.340;2023-06-26T16:26:03;24.40;85.70
40848;DHT22;26570;50.962;5.340;2023-06-26T16:28:51;24.40;85.80
40848;DHT22;26570;50.962;5.340;2023-06-26T16:31:38;24.40;84.50
40848;DHT22;26570;50.962;5.340;2023-06-26T16:34:26;24.20;85.00
40848;DHT22;26570;50.962;5.340;2023-06-26T16:37:18;24.20;85.90
40848;DHT22;26570;50.962;5.340;2023-06-26T16:40:07;24.20;88.20
40848;DHT22;26570;50.962;5.340;2023-06-26T16:43:03;24.30;88.30
40848;DHT22;26570;50.962;5.340;2023-06-26T16:45:52;24.40;88.40
40848;DHT22;26570;50.962;5.340;2023-06-26T16:48:41;24.70;87.20
40848;DHT22;26570;50.962;5.340;2023-06-26T16:51:29;24.30;87.50
40848;DHT22;26570;50.962;5.340;2023-06-26T16:54:18;24.00;86.90
40848;DHT22;26570;50.962;5.340;2023-06-26T16:57:06;23.70;88.60
40848;DHT22;26570;50.962;5.340;2023-06-26T16:59:56;23.60;90.20
40848;DHT22;26570;50.962;5.340;2023-06-26T17:02:45;23.50;89.40
40848;DHT22;26570;50.962;5.340;2023-06-26T17:05:33;23.60;89.40
40848;DHT22;26570;50.962;5.340;2023-06-26T17:08:21;23.50;89.50
40848;DHT22;26570;50.962;5.340;2023-06-26T17:11:10;23.50;88.80
40848;DHT22;26570;50.962;5.340;2023-06-26T17:13:59;23.40;90.10
40848;DHT22;26570;50.962;5.340;2023-06-26T17:16:48;23.50;90.10
40848;DHT22;26570;50.962;5.340;2023-06-26T17:19:36;23.40;90.20
40848;DHT22;26570;50.962;5.340;2023-06-26T17:22:24;23.30;87.90
40848;DHT22;26570;50.962;5.340;2023-06-26T17:25:13;23.30;89.20
40848;DHT22;26570;50.962;5.340;2023-06-26T17:28:00;23.10;89.40
40848;DHT22;26570;50.962;5.340;2023-06-26T17:30:49;23.10;90.50
40848;DHT22;26570;50.962;5.340;2023-06-26T17:33:37;23.20;89.90
40848;DHT22;26570;50.962;5.340;2023-06-26T17:36:25;23.30;88.30
40848;DHT22;26570;50.962;5.340;2023-06-26T17:39:14;23.10;88.30
40848;DHT22;26570;50.962;5.340;2023-06-26T17:42:02;23.10;89.40
40848;DHT22;26570;50.962;5.340;2023-06-26T17:44:50;23.20;88.80
40848;DHT22;26570;50.962;5.340;2023-06-26T17:47:40;23.40;88.80
40848;DHT22;26570;50.962;5.340;2023-06-26T17:50:29;23.50;86.70
40848;DHT22;26570;50.962;5.340;2023-06-26T17:53:18;23.50;86.40
40848;DHT22;26570;50.962;5.340;2023-06-26T17:56:07;23.20;87.70
40848;DHT22;26570;50.962;5.340;2023-06-26T17:58:55;23.10;87.00
40848;DHT22;26570;50.962;5.340;2023-06-26T18:01:43;23.00;87.70
40848;DHT22;26570;50.962;5.340;2023-06-26T18:04:32;22.70;88.70
40848;DHT22;26570;50.962;5.340;2023-06-26T18:07:24;22.90;90.40
40848;DHT22;26570;50.962;5.340;2023-06-26T18:10:13;23.10;88.70
40848;DHT22;26570;50.962;5.340;2023-06-26T18:13:01;23.10;87.80
40848;DHT22;26570;50.962;5.340;2023-06-26T18:15:49;23.00;87.70
40848;DHT22;26570;50.962;5.340;2023-06-26T18:18:41;22.60;87.20
40848;DHT22;26570;50.962;5.340;2023-06-26T18:21:29;22.60;89.30
40848;DHT22;26570;50.962;5.340;2023-06-26T18:24:18;22.60;88.00
40848;DHT22;26570;50.962;5.340;2023-06-26T18:27:08;22.60;88.90
40848;DHT22;26570;50.962;5.340;2023-06-26T18:30:05;22.60;87.90
40848;DHT22;26570;50.962;5.340;2023-06-26T18:32:53;22.80;88.20
40848;DHT22;26570;50.962;5.340;2023-06-26T18:35:43;22.60;90.10
40848;DHT22;26570;50.962;5.340;2023-06-26T18:38:30;22.60;89.20
40848;DHT22;26570;50.962;5.340;2023-06-26T18:41:19;22.60;90.60
40848;DHT22;26570;50.962;5.340;2023-06-26T18:44:06;22.60;90.60
40848;DHT22;26570;50.962;5.340;2023-06-26T18:46:53;22.70;89.60
40848;DHT22;26570;50.962;5.340;2023-06-26T18:49:46;22.50;90.10
40848;DHT22;26570;50.962;5.340;2023-06-26T18:52:33;22.60;90.40
40848;DHT22;26570;50.962;5.340;2023-06-26T18:55:23;22.50;89.40
40848;DHT22;26570;50.962;5.340;2023-06-26T18:58:11;22.20;90.50
40848;DHT22;26570;50.962;5.340;2023-06-26T19:00:59;22.20;90.80
40848;DHT22;26570;50.962;5.340;2023-06-26T19:03:48;22.20;90.70
40848;DHT22;26570;50.962;5.340;2023-06-26T19:06:36;22.10;91.20
40848;DHT22;26570;50.962;5.340;2023-06-26T19:09:24;22.10;90.70
40848;DHT22;26570;50.962;5.340;2023-06-26T19:12:13;21.90;91.40
40848;DHT22;26570;50.962;5.340;2023-06-26T19:15:01;21.70;92.40
40848;DHT22;26570;50.962;5.340;2023-06-26T19:17:53;21.60;92.70
40848;DHT22;26570;50.962;5.340;2023-06-26T19:20:43;21.50;93.60